sensor_id;sensor_type;location;lat;lon;timestamp;P1;durP1;ratioP1;P2;durP2;ratioP2
20705;SDS011;10514;49.468;11.044;2022-08-20T00:00:24;17.77;;;13.57;;
20705;SDS011;10514;49.468;11.044;2022-08-20T00:02:56;16.10;;;12.65;;
20705;SDS011;10514;49.468;11.044;2022-08-20T00:05:23;20.73;;;13.05;;
20705;SDS011;10514;49.468;11.044;2022-08-20T00:07:51;18.88;;;13.45;;
20705;SDS011;10514;49.468;11.044;2022-08-20T00:10:17;15.93;;;13.18;;
20705;SDS011;10514;49.468;11.044;2022-08-20T00:12:44;17.20;;;13.68;;
20705;SDS011;10514;49.468;11.044;2022-08-20T00:15:11;18.85;;;13.05;;
20705;SDS011;10514;49.468;11.044;2022-08-20T00:17:37;17.20;;;12.93;;
20705;SDS011;10514;49.468;11.044;2022-08-20T00:20:04;13.65;;;11.38;;
20705;SDS011;10514;49.468;11.044;2022-08-20T00:22:33;15.93;;;13.15;;
20705;SDS011;10514;49.468;11.044;2022-08-20T00:24:59;17.88;;;13.70;;
20705;SDS011;10514;49.468;11.044;2022-08-20T00:27:25;18.35;;;13.70;;
20705;SDS011;10514;49.468;11.044;2022-08-20T00:29:51;16.55;;;12.60;;
20705;SDS011;10514;49.468;11.044;2022-08-20T00:32:17;13.18;;;11.10;;
20705;SDS011;10514;49.468;11.044;2022-08-20T00:34:42;14.75;;;10.57;;
20705;SDS011;10514;49.468;11.044;2022-08-20T00:37:08;15.98;;;12.85;;
20705;SDS011;10514;49.468;11.044;2022-08-20T00:39:34;16.42;;;13.07;;
20705;SDS011;10514;49.468;11.044;2022-08-20T00:42:01;16.77;;;13.55;;
20705;SDS011;10514;49.468;11.044;2022-08-20T00:44:27;17.05;;;12.60;;
20705;SDS011;10514;49.468;11.044;2022-08-20T00:46:53;20.05;;;13.98;;
20705;SDS011;10514;49.468;11.044;2022-08-20T00:49:26;17.13;;;13.43;;
20705;SDS011;10514;49.468;11.044;2022-08-20T00:52:09;14.93;;;12.55;;
20705;SDS011;10514;49.468;11.044;2022-08-20T00:54:40;19.63;;;13.23;;
20705;SDS011;10514;49.468;11.044;2022-08-20T00:57:18;16.77;;;12.65;;
20705;SDS011;10514;49.468;11.044;2022-08-20T00:59:48;17.77;;;13.13;;
20705;SDS011;10514;49.468;11.044;2022-08-20T01:02:15;15.70;;;12.75;;
20705;SDS011;10514;49.468;11.044;2022-08-20T01:04:41;19.20;;;13.95;;
20705;SDS011;10514;49.468;11.044;2022-08-20T01:07:18;17.17;;;13.30;;
20705;SDS011;10514;49.468;11.044;2022-08-20T01:09:45;20.17;;;13.65;;
20705;SDS011;10514;49.468;11.044;2022-08-20T01:12:12;17.80;;;14.15;;
20705;SDS011;10514;49.468;11.044;2022-08-20T01:14:40;19.70;;;13.90;;
20705;SDS011;10514;49.468;11.044;2022-08-20T01:17:09;19.33;;;14.48;;
20705;SDS011;10514;49.468;11.044;2022-08-20T01:19:41;18.98;;;13.85;;
20705;SDS011;10514;49.468;11.044;2022-08-20T01:22:07;14.55;;;12.57;;
20705;SDS011;10514;49.468;11.044;2022-08-20T01:25:07;15.75;;;11.73;;
20705;SDS011;10514;49.468;11.044;2022-08-20T01:27:34;17.92;;;15.00;;
20705;SDS011;10514;49.468;11.044;2022-08-20T01:30:01;21.80;;;15.15;;
20705;SDS011;10514;49.468;11.044;2022-08-20T01:32:27;21.08;;;15.55;;
20705;SDS011;10514;49.468;11.044;2022-08-20T01:34:53;20.83;;;14.30;;
20705;SDS011;10514;49.468;11.044;2022-08-20T01:37:19;21.00;;;15.52;;
20705;SDS011;10514;49.468;11.044;2022-08-20T01:39:44;17.08;;;13.50;;
20705;SDS011;10514;49.468;11.044;2022-08-20T01:42:13;16.98;;;13.20;;
20705;SDS011;10514;49.468;11.044;2022-08-20T01:44:41;18.98;;;14.45;;
20705;SDS011;10514;49.468;11.044;2022-08-20T01:47:15;18.30;;;13.38;;
20705;SDS011;10514;49.468;11.044;2022-08-20T01:49:46;16.80;;;12.80;;
20705;SDS011;10514;49.468;11.044;2022-08-20T01:52:14;16.65;;;13.05;;
20705;SDS011;10514;49.468;11.044;2022-08-20T01:54:42;16.33;;;12.10;;
20705;SDS011;10514;49.468;11.044;2022-08-20T01:57:14;15.75;;;11.82;;
20705;SDS011;10514;49.468;11.044;2022-08-20T01:59:40;18.63;;;14.75;;
20705;SDS011;10514;49.468;11.044;2022-08-20T02:02:07;15.18;;;12.35;;
20705;SDS011;10514;49.468;11.044;2022-08-20T02:04:33;15.07;;;11.55;;
20705;SDS011;10514;49.468;11.044;2022-08-20T02:07:00;15.45;;;12.13;;
20705;SDS011;10514;49.468;11.044;2022-08-20T02:09:28;18.45;;;13.18;;
20705;SDS011;10514;49.468;11.044;2022-08-20T02:11:55;16.25;;;13.27;;
20705;SDS011;10514;49.468;11.044;2022-08-20T02:14:22;15.23;;;11.98;;
20705;SDS011;10514;49.468;11.044;2022-08-20T02:16:48;15.52;;;12.45;;
20705;SDS011;10514;49.468;11.044;2022-08-20T02:19:19;17.95;;;13.13;;
20705;SDS011;10514;49.468;11.044;2022-08-20T02:21:48;13.90;;;11.68;;
20705;SDS011;10514;49.468;11.044;2022-08-20T02:24:15;16.90;;;13.07;;
20705;SDS011;10514;49.468;11.044;2022-08-20T02:26:41;19.15;;;14.05;;
20705;SDS011;10514;49.468;11.044;2022-08-20T02:29:08;15.57;;;12.55;;
20705;SDS011;10514;49.468;11.044;2022-08-20T02:31:35;14.90;;;12.48;;
20705;SDS011;10514;49.468;11.044;2022-08-20T02:34:02;16.65;;;13.70;;
20705;SDS011;10514;49.468;11.044;2022-08-20T02:36:29;15.10;;;12.70;;
20705;SDS011;10514;49.468;11.044;2022-08-20T02:38:54;16.73;;;12.55;;
20705;SDS011;10514;49.468;11.044;2022-08-20T02:44:24;15.25;;;12.68;;
20705;SDS011;10514;49.468;11.044;2022-08-20T02:46:50;15.90;;;11.73;;
20705;SDS011;10514;49.468;11.044;2022-08-20T02:49:17;13.63;;;11.70;;
20705;SDS011;10514;49.468;11.044;2022-08-20T02:51:43;13.35;;;10.50;;
20705;SDS011;10514;49.468;11.044;2022-08-20T02:54:10;13.05;;;10.55;;
20705;SDS011;10514;49.468;11.044;2022-08-20T02:56:36;16.60;;;12.32;;
20705;SDS011;10514;49.468;11.044;2022-08-20T02:59:02;15.50;;;12.88;;
20705;SDS011;10514;49.468;11.044;2022-08-20T03:01:29;18.80;;;13.48;;
20705;SDS011;10514;49.468;11.044;2022-08-20T03:03:55;13.95;;;11.60;;
20705;SDS011;10514;49.468;11.044;2022-08-20T03:06:23;16.42;;;12.68;;
20705;SDS011;10514;49.468;11.044;2022-08-20T03:08:49;16.13;;;13.65;;
20705;SDS011;10514;49.468;11.044;2022-08-20T03:11:15;15.45;;;12.07;;
20705;SDS011;10514;49.468;11.044;2022-08-20T03:13:40;14.07;;;11.52;;
20705;SDS011;10514;49.468;11.044;2022-08-20T03:16:07;16.88;;;13.48;;
20705;SDS011;10514;49.468;11.044;2022-08-20T03:18:37;13.80;;;11.52;;
20705;SDS011;10514;49.468;11.044;2022-08-20T03:21:04;16.23;;;13.18;;
20705;SDS011;10514;49.468;11.044;2022-08-20T03:23:30;15.43;;;12.55;;
20705;SDS011;10514;49.468;11.044;2022-08-20T03:25:56;12.65;;;10.30;;
20705;SDS011;10514;49.468;11.044;2022-08-20T03:28:22;14.73;;;12.13;;
20705;SDS011;10514;49.468;11.044;2022-08-20T03:30:48;13.00;;;9.85;;
20705;SDS011;10514;49.468;11.044;2022-08-20T03:33:15;13.13;;;10.25;;
20705;SDS011;10514;49.468;11.044;2022-08-20T03:35:41;15.60;;;13.02;;
20705;SDS011;10514;49.468;11.044;2022-08-20T03:38:09;17.48;;;13.18;;
20705;SDS011;10514;49.468;11.044;2022-08-20T03:40:37;16.13;;;12.25;;
20705;SDS011;10514;49.468;11.044;2022-08-20T03:43:04;15.20;;;11.90;;
20705;SDS011;10514;49.468;11.044;2022-08-20T03:45:31;15.10;;;11.18;;
20705;SDS011;10514;49.468;11.044;2022-08-20T03:47:57;13.02;;;10.38;;
20705;SDS011;10514;49.468;11.044;2022-08-20T03:50:25;17.40;;;12.85;;
20705;SDS011;10514;49.468;11.044;2022-08-20T03:52:53;15.13;;;11.88;;
20705;SDS011;10514;49.468;11.044;2022-08-20T03:55:21;16.33;;;13.13;;
20705;SDS011;10514;49.468;11.044;2022-08-20T03:57:48;18.73;;;12.95;;
20705;SDS011;10514;49.468;11.044;2022-08-20T04:00:18;15.45;;;12.80;;
20705;SDS011;10514;49.468;11.044;2022-08-20T04:02:45;19.50;;;14.50;;
20705;SDS011;10514;49.468;11.044;2022-08-20T04:05:11;19.25;;;14.95;;
20705;SDS011;10514;49.468;11.044;2022-08-20T04:07:37;15.73;;;13.50;;
20705;SDS011;10514;49.468;11.044;2022-08-20T04:10:05;17.55;;;14.25;;
20705;SDS011;10514;49.468;11.044;2022-08-20T04:12:31;20.60;;;14.88;;
20705;SDS011;10514;49.468;11.044;2022-08-20T04:14:57;18.75;;;13.82;;
20705;SDS011;10514;49.468;11.044;2022-08-20T04:17:23;20.52;;;14.63;;
20705;SDS011;10514;49.468;11.044;2022-08-20T04:19:49;22.52;;;14.30;;
20705;SDS011;10514;49.468;11.044;2022-08-20T04:22:15;17.52;;;14.23;;
20705;SDS011;10514;49.468;11.044;2022-08-20T04:24:41;19.80;;;13.93;;
20705;SDS011;10514;49.468;11.044;2022-08-20T04:27:07;19.60;;;14.55;;
20705;SDS011;10514;49.468;11.044;2022-08-20T04:29:34;18.45;;;14.88;;
20705;SDS011;10514;49.468;11.044;2022-08-20T04:32:01;18.45;;;14.25;;
20705;SDS011;10514;49.468;11.044;2022-08-20T04:34:30;18.98;;;12.82;;
20705;SDS011;10514;49.468;11.044;2022-08-20T04:36:56;17.83;;;12.60;;
20705;SDS011;10514;49.468;11.044;2022-08-20T04:39:22;16.48;;;13.15;;
20705;SDS011;10514;49.468;11.044;2022-08-20T04:41:48;17.48;;;13.77;;
20705;SDS011;10514;49.468;11.044;2022-08-20T04:44:14;19.10;;;15.32;;
20705;SDS011;10514;49.468;11.044;2022-08-20T04:46:40;17.33;;;13.98;;
20705;SDS011;10514;49.468;11.044;2022-08-20T04:49:06;19.33;;;14.80;;
20705;SDS011;10514;49.468;11.044;2022-08-20T04:51:32;22.30;;;16.95;;
20705;SDS011;10514;49.468;11.044;2022-08-20T04:53:59;25.77;;;17.27;;
20705;SDS011;10514;49.468;11.044;2022-08-20T04:56:28;24.05;;;18.25;;
20705;SDS011;10514;49.468;11.044;2022-08-20T04:58:55;25.38;;;17.02;;
20705;SDS011;10514;49.468;11.044;2022-08-20T05:01:22;21.85;;;16.58;;
20705;SDS011;10514;49.468;11.044;2022-08-20T05:03:48;21.42;;;16.30;;
20705;SDS011;10514;49.468;11.044;2022-08-20T05:06:14;28.00;;;17.60;;
20705;SDS011;10514;49.468;11.044;2022-08-20T05:08:41;22.67;;;15.13;;
20705;SDS011;10514;49.468;11.044;2022-08-20T05:11:07;21.40;;;14.70;;
20705;SDS011;10514;49.468;11.044;2022-08-20T05:13:33;25.65;;;17.10;;
20705;SDS011;10514;49.468;11.044;2022-08-20T05:16:00;28.05;;;18.50;;
20705;SDS011;10514;49.468;11.044;2022-08-20T05:18:26;23.90;;;16.73;;
20705;SDS011;10514;49.468;11.044;2022-08-20T05:20:57;28.95;;;19.13;;
20705;SDS011;10514;49.468;11.044;2022-08-20T05:23:28;25.00;;;16.63;;
20705;SDS011;10514;49.468;11.044;2022-08-20T05:25:55;18.88;;;15.07;;
20705;SDS011;10514;49.468;11.044;2022-08-20T05:28:22;27.42;;;18.10;;
20705;SDS011;10514;49.468;11.044;2022-08-20T05:30:49;21.33;;;16.05;;
20705;SDS011;10514;49.468;11.044;2022-08-20T05:33:16;19.40;;;13.98;;
20705;SDS011;10514;49.468;11.044;2022-08-20T05:35:44;23.92;;;17.40;;
20705;SDS011;10514;49.468;11.044;2022-08-20T05:38:11;19.77;;;15.90;;
20705;SDS011;10514;49.468;11.044;2022-08-20T05:40:39;29.40;;;19.35;;
20705;SDS011;10514;49.468;11.044;2022-08-20T05:43:05;21.50;;;16.25;;
20705;SDS011;10514;49.468;11.044;2022-08-20T05:45:32;19.40;;;14.70;;
20705;SDS011;10514;49.468;11.044;2022-08-20T05:48:02;19.02;;;14.80;;
20705;SDS011;10514;49.468;11.044;2022-08-20T05:50:29;23.38;;;18.42;;
20705;SDS011;10514;49.468;11.044;2022-08-20T05:52:54;23.45;;;17.90;;
20705;SDS011;10514;49.468;11.044;2022-08-20T05:55:20;22.45;;;17.13;;
20705;SDS011;10514;49.468;11.044;2022-08-20T05:57:48;23.27;;;17.55;;
20705;SDS011;10514;49.468;11.044;2022-08-20T06:00:14;23.50;;;17.85;;
20705;SDS011;10514;49.468;11.044;2022-08-20T06:02:40;26.15;;;18.90;;
20705;SDS011;10514;49.468;11.044;2022-08-20T06:05:25;19.00;;;14.90;;
20705;SDS011;10514;49.468;11.044;2022-08-20T06:07:51;26.17;;;17.15;;
20705;SDS011;10514;49.468;11.044;2022-08-20T06:10:17;25.95;;;20.13;;
20705;SDS011;10514;49.468;11.044;2022-08-20T06:12:43;23.83;;;19.35;;
20705;SDS011;10514;49.468;11.044;2022-08-20T06:15:09;23.00;;;18.08;;
20705;SDS011;10514;49.468;11.044;2022-08-20T06:17:36;23.95;;;17.73;;
20705;SDS011;10514;49.468;11.044;2022-08-20T06:20:05;23.33;;;19.67;;
20705;SDS011;10514;49.468;11.044;2022-08-20T06:22:32;23.15;;;17.10;;
20705;SDS011;10514;49.468;11.044;2022-08-20T06:24:59;24.45;;;19.17;;
20705;SDS011;10514;49.468;11.044;2022-08-20T06:27:25;20.33;;;15.63;;
20705;SDS011;10514;49.468;11.044;2022-08-20T06:29:53;20.25;;;15.63;;
20705;SDS011;10514;49.468;11.044;2022-08-20T06:32:20;21.80;;;16.48;;
20705;SDS011;10514;49.468;11.044;2022-08-20T06:34:48;22.15;;;17.77;;
20705;SDS011;10514;49.468;11.044;2022-08-20T06:37:16;21.20;;;16.45;;
20705;SDS011;10514;49.468;11.044;2022-08-20T06:39:42;21.33;;;16.23;;
20705;SDS011;10514;49.468;11.044;2022-08-20T06:42:08;22.85;;;16.60;;
20705;SDS011;10514;49.468;11.044;2022-08-20T06:44:34;21.80;;;17.20;;
20705;SDS011;10514;49.468;11.044;2022-08-20T06:47:01;18.40;;;14.90;;
20705;SDS011;10514;49.468;11.044;2022-08-20T06:49:27;23.33;;;17.45;;
20705;SDS011;10514;49.468;11.044;2022-08-20T06:51:54;20.08;;;15.95;;
20705;SDS011;10514;49.468;11.044;2022-08-20T06:54:20;21.77;;;17.33;;
20705;SDS011;10514;49.468;11.044;2022-08-20T06:56:46;18.90;;;16.13;;
20705;SDS011;10514;49.468;11.044;2022-08-20T06:59:12;17.35;;;14.60;;
20705;SDS011;10514;49.468;11.044;2022-08-20T07:01:37;21.08;;;16.20;;
20705;SDS011;10514;49.468;11.044;2022-08-20T07:04:03;21.83;;;16.17;;
20705;SDS011;10514;49.468;11.044;2022-08-20T07:06:31;20.52;;;16.13;;
20705;SDS011;10514;49.468;11.044;2022-08-20T07:08:57;15.77;;;13.18;;
20705;SDS011;10514;49.468;11.044;2022-08-20T07:11:23;21.15;;;15.50;;
20705;SDS011;10514;49.468;11.044;2022-08-20T07:13:49;19.05;;;14.98;;
20705;SDS011;10514;49.468;11.044;2022-08-20T07:16:15;18.60;;;14.50;;
20705;SDS011;10514;49.468;11.044;2022-08-20T07:18:41;15.60;;;13.25;;
20705;SDS011;10514;49.468;11.044;2022-08-20T07:21:07;15.77;;;13.30;;
20705;SDS011;10514;49.468;11.044;2022-08-20T07:23:33;15.52;;;13.38;;
20705;SDS011;10514;49.468;11.044;2022-08-20T07:26:00;17.33;;;14.05;;
20705;SDS011;10514;49.468;11.044;2022-08-20T07:28:27;15.77;;;13.95;;
20705;SDS011;10514;49.468;11.044;2022-08-20T07:30:53;16.48;;;13.68;;
20705;SDS011;10514;49.468;11.044;2022-08-20T07:33:58;14.05;;;12.43;;
20705;SDS011;10514;49.468;11.044;2022-08-20T07:36:23;14.50;;;12.85;;
20705;SDS011;10514;49.468;11.044;2022-08-20T07:38:49;17.23;;;12.52;;
20705;SDS011;10514;49.468;11.044;2022-08-20T07:41:16;15.23;;;12.40;;
20705;SDS011;10514;49.468;11.044;2022-08-20T07:43:43;17.10;;;14.13;;
20705;SDS011;10514;49.468;11.044;2022-08-20T07:46:09;14.77;;;13.20;;
20705;SDS011;10514;49.468;11.044;2022-08-20T07:48:36;16.58;;;13.27;;
20705;SDS011;10514;49.468;11.044;2022-08-20T07:51:06;12.95;;;11.63;;
20705;SDS011;10514;49.468;11.044;2022-08-20T07:53:33;13.10;;;11.50;;
20705;SDS011;10514;49.468;11.044;2022-08-20T07:56:01;14.57;;;11.80;;
20705;SDS011;10514;49.468;11.044;2022-08-20T07:58:27;14.75;;;11.95;;
20705;SDS011;10514;49.468;11.044;2022-08-20T08:00:54;18.52;;;12.95;;
20705;SDS011;10514;49.468;11.044;2022-08-20T08:03:19;14.80;;;12.32;;
20705;SDS011;10514;49.468;11.044;2022-08-20T08:05:46;15.77;;;14.07;;
20705;SDS011;10514;49.468;11.044;2022-08-20T08:08:16;15.85;;;13.32;;
20705;SDS011;10514;49.468;11.044;2022-08-20T08:10:46;13.88;;;12.25;;
20705;SDS011;10514;49.468;11.044;2022-08-20T08:13:14;14.07;;;11.75;;
20705;SDS011;10514;49.468;11.044;2022-08-20T08:15:41;13.40;;;12.00;;
20705;SDS011;10514;49.468;11.044;2022-08-20T08:18:11;13.27;;;11.95;;
20705;SDS011;10514;49.468;11.044;2022-08-20T08:20:39;12.25;;;10.48;;
20705;SDS011;10514;49.468;11.044;2022-08-20T08:23:07;18.00;;;12.52;;
20705;SDS011;10514;49.468;11.044;2022-08-20T08:25:35;12.70;;;11.10;;
20705;SDS011;10514;49.468;11.044;2022-08-20T08:28:02;15.25;;;12.02;;
20705;SDS011;10514;49.468;11.044;2022-08-20T08:30:29;12.73;;;11.43;;
20705;SDS011;10514;49.468;11.044;2022-08-20T08:32:55;14.38;;;11.90;;
20705;SDS011;10514;49.468;11.044;2022-08-20T08:35:40;18.98;;;12.40;;
20705;SDS011;10514;49.468;11.044;2022-08-20T08:38:10;17.58;;;13.00;;
20705;SDS011;10514;49.468;11.044;2022-08-20T08:40:36;12.98;;;11.43;;
20705;SDS011;10514;49.468;11.044;2022-08-20T08:43:03;14.80;;;13.20;;
20705;SDS011;10514;49.468;11.044;2022-08-20T08:45:33;16.40;;;12.32;;
20705;SDS011;10514;49.468;11.044;2022-08-20T08:48:12;13.38;;;11.98;;
20705;SDS011;10514;49.468;11.044;2022-08-20T08:50:39;12.50;;;10.25;;
20705;SDS011;10514;49.468;11.044;2022-08-20T08:53:07;12.77;;;10.30;;
20705;SDS011;10514;49.468;11.044;2022-08-20T08:55:35;14.18;;;10.32;;
20705;SDS011;10514;49.468;11.044;2022-08-20T08:58:01;13.20;;;10.75;;
20705;SDS011;10514;49.468;11.044;2022-08-20T09:00:27;12.73;;;10.75;;
20705;SDS011;10514;49.468;11.044;2022-08-20T09:03:02;15.38;;;12.18;;
20705;SDS011;10514;49.468;11.044;2022-08-20T09:05:43;14.88;;;12.02;;
20705;SDS011;10514;49.468;11.044;2022-08-20T09:08:11;12.77;;;11.40;;
20705;SDS011;10514;49.468;11.044;2022-08-20T09:10:39;13.75;;;11.65;;
20705;SDS011;10514;49.468;11.044;2022-08-20T09:13:05;15.70;;;12.43;;
20705;SDS011;10514;49.468;11.044;2022-08-20T09:15:31;17.65;;;12.15;;
20705;SDS011;10514;49.468;11.044;2022-08-20T09:17:57;17.02;;;11.68;;
20705;SDS011;10514;49.468;11.044;2022-08-20T09:20:24;15.70;;;11.35;;
20705;SDS011;10514;49.468;11.044;2022-08-20T09:22:50;14.65;;;12.40;;
20705;SDS011;10514;49.468;11.044;2022-08-20T09:25:16;14.45;;;12.77;;
20705;SDS011;10514;49.468;11.044;2022-08-20T09:27:42;14.32;;;11.63;;
20705;SDS011;10514;49.468;11.044;2022-08-20T09:30:08;17.23;;;12.90;;
20705;SDS011;10514;49.468;11.044;2022-08-20T09:32:34;12.30;;;11.00;;
20705;SDS011;10514;49.468;11.044;2022-08-20T09:35:00;19.23;;;12.13;;
20705;SDS011;10514;49.468;11.044;2022-08-20T09:37:27;14.75;;;12.52;;
20705;SDS011;10514;49.468;11.044;2022-08-20T09:39:53;17.20;;;12.18;;
20705;SDS011;10514;49.468;11.044;2022-08-20T09:42:21;14.50;;;11.18;;
20705;SDS011;10514;49.468;11.044;2022-08-20T09:44:47;12.93;;;10.93;;
20705;SDS011;10514;49.468;11.044;2022-08-20T09:47:13;12.05;;;10.80;;
20705;SDS011;10514;49.468;11.044;2022-08-20T09:49:39;11.60;;;10.38;;
20705;SDS011;10514;49.468;11.044;2022-08-20T09:52:07;11.45;;;9.70;;
20705;SDS011;10514;49.468;11.044;2022-08-20T09:54:33;15.20;;;10.82;;
20705;SDS011;10514;49.468;11.044;2022-08-20T09:57:04;13.98;;;10.75;;
20705;SDS011;10514;49.468;11.044;2022-08-20T09:59:31;14.68;;;10.45;;
20705;SDS011;10514;49.468;11.044;2022-08-20T10:01:58;13.05;;;10.18;;
20705;SDS011;10514;49.468;11.044;2022-08-20T10:04:24;14.32;;;11.23;;
20705;SDS011;10514;49.468;11.044;2022-08-20T10:06:49;14.25;;;10.98;;
20705;SDS011;10514;49.468;11.044;2022-08-20T10:09:15;13.00;;;11.05;;
20705;SDS011;10514;49.468;11.044;2022-08-20T10:11:41;12.77;;;10.68;;
20705;SDS011;10514;49.468;11.044;2022-08-20T10:14:07;15.93;;;12.18;;
20705;SDS011;10514;49.468;11.044;2022-08-20T10:16:34;13.73;;;11.13;;
20705;SDS011;10514;49.468;11.044;2022-08-20T10:19:00;19.30;;;12.85;;
20705;SDS011;10514;49.468;11.044;2022-08-20T10:21:27;14.68;;;11.32;;
20705;SDS011;10514;49.468;11.044;2022-08-20T10:23:54;14.98;;;12.20;;
20705;SDS011;10514;49.468;11.044;2022-08-20T10:26:20;15.15;;;11.05;;
20705;SDS011;10514;49.468;11.044;2022-08-20T10:28:46;13.48;;;10.27;;
20705;SDS011;10514;49.468;11.044;2022-08-20T10:31:12;17.42;;;11.02;;
20705;SDS011;10514;49.468;11.044;2022-08-20T10:33:39;16.80;;;12.65;;
20705;SDS011;10514;49.468;11.044;2022-08-20T10:36:09;14.60;;;11.88;;
20705;SDS011;10514;49.468;11.044;2022-08-20T10:38:37;16.15;;;11.68;;
20705;SDS011;10514;49.468;11.044;2022-08-20T10:41:03;15.55;;;10.25;;
20705;SDS011;10514;49.468;11.044;2022-08-20T10:43:29;13.13;;;9.95;;
20705;SDS011;10514;49.468;11.044;2022-08-20T10:45:55;12.00;;;10.13;;
20705;SDS011;10514;49.468;11.044;2022-08-20T10:48:21;13.93;;;11.35;;
20705;SDS011;10514;49.468;11.044;2022-08-20T10:50:48;16.38;;;12.18;;
20705;SDS011;10514;49.468;11.044;2022-08-20T10:53:13;14.88;;;10.82;;
20705;SDS011;10514;49.468;11.044;2022-08-20T10:55:39;13.85;;;10.65;;
20705;SDS011;10514;49.468;11.044;2022-08-20T10:58:06;14.05;;;12.15;;
20705;SDS011;10514;49.468;11.044;2022-08-20T11:00:32;13.13;;;10.40;;
20705;SDS011;10514;49.468;11.044;2022-08-20T11:02:58;15.57;;;12.52;;
20705;SDS011;10514;49.468;11.044;2022-08-20T11:05:23;14.45;;;10.43;;
20705;SDS011;10514;49.468;11.044;2022-08-20T11:07:49;15.57;;;12.27;;
20705;SDS011;10514;49.468;11.044;2022-08-20T11:10:15;13.00;;;10.43;;
20705;SDS011;10514;49.468;11.044;2022-08-20T11:12:42;15.93;;;11.35;;
20705;SDS011;10514;49.468;11.044;2022-08-20T11:15:08;18.25;;;11.63;;
20705;SDS011;10514;49.468;11.044;2022-08-20T11:17:35;17.30;;;11.85;;
20705;SDS011;10514;49.468;11.044;2022-08-20T11:20:03;11.30;;;10.10;;
20705;SDS011;10514;49.468;11.044;2022-08-20T11:22:30;16.00;;;11.07;;
20705;SDS011;10514;49.468;11.044;2022-08-20T11:24:56;15.80;;;11.32;;
20705;SDS011;10514;49.468;11.044;2022-08-20T11:27:27;14.15;;;11.68;;
20705;SDS011;10514;49.468;11.044;2022-08-20T11:29:55;15.93;;;11.93;;
20705;SDS011;10514;49.468;11.044;2022-08-20T11:32:21;13.43;;;10.90;;
20705;SDS011;10514;49.468;11.044;2022-08-20T11:34:47;13.77;;;11.57;;
20705;SDS011;10514;49.468;11.044;2022-08-20T11:37:14;18.02;;;12.60;;
20705;SDS011;10514;49.468;11.044;2022-08-20T11:39:40;15.30;;;11.43;;
20705;SDS011;10514;49.468;11.044;2022-08-20T11:42:06;13.98;;;12.02;;
20705;SDS011;10514;49.468;11.044;2022-08-20T11:44:32;20.38;;;11.98;;
20705;SDS011;10514;49.468;11.044;2022-08-20T11:46:59;14.52;;;11.40;;
20705;SDS011;10514;49.468;11.044;2022-08-20T11:49:27;14.88;;;11.45;;
20705;SDS011;10514;49.468;11.044;2022-08-20T11:51:53;17.67;;;12.82;;
20705;SDS011;10514;49.468;11.044;2022-08-20T11:54:19;15.27;;;11.80;;
20705;SDS011;10514;49.468;11.044;2022-08-20T11:56:44;17.55;;;11.85;;
20705;SDS011;10514;49.468;11.044;2022-08-20T11:59:12;13.48;;;10.63;;
20705;SDS011;10514;49.468;11.044;2022-08-20T12:01:38;15.25;;;10.93;;
20705;SDS011;10514;49.468;11.044;2022-08-20T12:04:04;15.43;;;10.70;;
20705;SDS011;10514;49.468;11.044;2022-08-20T12:06:30;14.48;;;10.77;;
20705;SDS011;10514;49.468;11.044;2022-08-20T12:08:57;17.02;;;11.95;;
20705;SDS011;10514;49.468;11.044;2022-08-20T12:11:23;15.07;;;11.93;;
20705;SDS011;10514;49.468;11.044;2022-08-20T12:13:49;14.23;;;11.95;;
20705;SDS011;10514;49.468;11.044;2022-08-20T12:16:16;19.35;;;14.30;;
20705;SDS011;10514;49.468;11.044;2022-08-20T12:18:42;18.45;;;13.77;;
20705;SDS011;10514;49.468;11.044;2022-08-20T12:21:08;14.65;;;11.63;;
20705;SDS011;10514;49.468;11.044;2022-08-20T12:23:34;15.60;;;11.48;;
20705;SDS011;10514;49.468;11.044;2022-08-20T12:26:00;12.40;;;9.93;;
20705;SDS011;10514;49.468;11.044;2022-08-20T12:28:27;18.67;;;12.90;;
20705;SDS011;10514;49.468;11.044;2022-08-20T12:30:53;21.75;;;13.98;;
20705;SDS011;10514;49.468;11.044;2022-08-20T12:33:19;20.80;;;13.43;;
20705;SDS011;10514;49.468;11.044;2022-08-20T12:35:45;17.67;;;13.45;;
20705;SDS011;10514;49.468;11.044;2022-08-20T12:38:11;17.85;;;12.20;;
20705;SDS011;10514;49.468;11.044;2022-08-20T12:40:38;13.00;;;10.32;;
20705;SDS011;10514;49.468;11.044;2022-08-20T12:43:04;12.07;;;10.23;;
20705;SDS011;10514;49.468;11.044;2022-08-20T12:45:31;20.13;;;9.70;;
20705;SDS011;10514;49.468;11.044;2022-08-20T12:48:10;11.70;;;9.68;;
20705;SDS011;10514;49.468;11.044;2022-08-20T12:50:37;10.52;;;7.40;;
20705;SDS011;10514;49.468;11.044;2022-08-20T12:53:05;9.70;;;6.82;;
20705;SDS011;10514;49.468;11.044;2022-08-20T12:55:31;6.35;;;5.43;;
20705;SDS011;10514;49.468;11.044;2022-08-20T12:57:58;8.23;;;4.85;;
20705;SDS011;10514;49.468;11.044;2022-08-20T13:02:51;8.13;;;5.53;;
20705;SDS011;10514;49.468;11.044;2022-08-20T13:05:18;8.05;;;5.15;;
20705;SDS011;10514;49.468;11.044;2022-08-20T13:07:45;8.50;;;7.35;;
20705;SDS011;10514;49.468;11.044;2022-08-20T13:10:13;7.13;;;5.20;;
20705;SDS011;10514;49.468;11.044;2022-08-20T13:12:39;9.60;;;6.05;;
20705;SDS011;10514;49.468;11.044;2022-08-20T13:15:05;7.60;;;5.60;;
20705;SDS011;10514;49.468;11.044;2022-08-20T13:17:31;6.68;;;5.95;;
20705;SDS011;10514;49.468;11.044;2022-08-20T13:19:57;10.60;;;6.57;;
20705;SDS011;10514;49.468;11.044;2022-08-20T13:22:23;9.63;;;8.50;;
20705;SDS011;10514;49.468;11.044;2022-08-20T13:24:49;8.82;;;7.63;;
20705;SDS011;10514;49.468;11.044;2022-08-20T13:27:17;9.05;;;6.35;;
20705;SDS011;10514;49.468;11.044;2022-08-20T13:29:51;8.48;;;6.65;;
20705;SDS011;10514;49.468;11.044;2022-08-20T13:32:18;9.77;;;5.38;;
20705;SDS011;10514;49.468;11.044;2022-08-20T13:34:44;7.05;;;6.00;;
20705;SDS011;10514;49.468;11.044;2022-08-20T13:37:31;6.72;;;5.75;;
20705;SDS011;10514;49.468;11.044;2022-08-20T13:39:57;6.07;;;5.47;;
20705;SDS011;10514;49.468;11.044;2022-08-20T13:42:23;9.13;;;5.93;;
20705;SDS011;10514;49.468;11.044;2022-08-20T13:44:49;6.45;;;5.75;;
20705;SDS011;10514;49.468;11.044;2022-08-20T13:47:23;6.90;;;6.07;;
20705;SDS011;10514;49.468;11.044;2022-08-20T13:49:59;7.20;;;6.22;;
20705;SDS011;10514;49.468;11.044;2022-08-20T13:52:30;6.88;;;6.15;;
20705;SDS011;10514;49.468;11.044;2022-08-20T13:54:57;7.63;;;5.50;;
20705;SDS011;10514;49.468;11.044;2022-08-20T13:57:23;6.78;;;5.50;;
20705;SDS011;10514;49.468;11.044;2022-08-20T13:59:50;5.93;;;4.25;;
20705;SDS011;10514;49.468;11.044;2022-08-20T14:02:17;5.90;;;4.68;;
20705;SDS011;10514;49.468;11.044;2022-08-20T14:04:43;6.63;;;4.30;;
20705;SDS011;10514;49.468;11.044;2022-08-20T14:07:11;6.63;;;5.18;;
20705;SDS011;10514;49.468;11.044;2022-08-20T14:09:38;5.88;;;4.88;;
20705;SDS011;10514;49.468;11.044;2022-08-20T14:12:04;7.38;;;5.03;;
20705;SDS011;10514;49.468;11.044;2022-08-20T14:14:30;7.72;;;5.90;;
20705;SDS011;10514;49.468;11.044;2022-08-20T14:16:56;12.27;;;6.10;;